Terminal Aerodrome Forecast
Issued by NWS Raleigh/Durham, NC

Home | Current Version | Previous Version | Text Only | Print | Product List | Glossary On
Versions: 1 2 3 4 5 6 7 8 9 10 11 12 13 14 15
000
FTUS42 KRAH 271126
TAFFAY
TAF
KFAY 271126Z 2712/2812 23007KT P6SM FEW120 SCT250
     FM271700 24008KT P6SM SCT050
      TEMPO 2718/2722 VRB15G25KT 3SM -SHRA BKN030=

USA.gov is the U.S. government's official web portal to all federal, state and local government web resources and services.